createdAt,value
2017-10-02T00:00:28.107Z,20.70
2017-10-02T00:02:34.784Z,20.00
2017-10-02T00:04:40.172Z,20.47
2017-10-02T00:06:47.952Z,17.77
2017-10-02T00:08:57.086Z,16.30
2017-10-02T00:11:08.318Z,16.50
2017-10-02T00:13:17.652Z,16.57
2017-10-02T00:15:35.413Z,16.67
2017-10-02T00:17:43.743Z,15.10
2017-10-02T00:19:51.058Z,13.67
2017-10-02T00:21:59.563Z,14.30
2017-10-02T00:24:08.523Z,11.90
2017-10-02T00:26:18.792Z,11.90
2017-10-02T00:28:26.641Z,12.40
2017-10-02T00:30:36.206Z,10.83
2017-10-02T00:32:46.451Z,11.50
2017-10-02T00:34:51.989Z,10.83
2017-10-02T00:37:00.851Z,10.57
2017-10-02T00:39:07.374Z,11.47
2017-10-02T00:41:13.998Z,9.80
2017-10-02T00:43:20.786Z,8.57
2017-10-02T00:45:27.137Z,9.43
2017-10-02T00:47:42.829Z,9.47
2017-10-02T00:49:52.214Z,8.63
2017-10-02T00:52:03.125Z,7.90
2017-10-02T00:54:17.145Z,7.43
2017-10-02T00:56:23.304Z,7.70
2017-10-02T00:58:32.137Z,7.50
2017-10-02T01:00:38.114Z,8.40
2017-10-02T01:02:44.567Z,7.80
2017-10-02T01:04:54.395Z,6.93
2017-10-02T01:07:09.493Z,7.33
2017-10-02T01:09:17.137Z,7.33
2017-10-02T01:11:28.369Z,7.23
2017-10-02T01:13:38.694Z,6.40
2017-10-02T01:15:54.127Z,6.13
2017-10-02T01:20:44.608Z,6.30
2017-10-02T01:22:57.283Z,6.93
2017-10-02T01:25:23.640Z,6.60
2017-10-02T01:27:36.877Z,6.03
2017-10-02T01:29:46.179Z,6.47
2017-10-02T01:31:52.973Z,6.50
2017-10-02T01:33:59.201Z,5.57
2017-10-02T01:36:05.914Z,5.63
2017-10-02T01:38:13.305Z,5.80
2017-10-02T01:40:21.571Z,6.37
2017-10-02T01:42:30.011Z,6.00
2017-10-02T01:44:37.023Z,5.23
2017-10-02T01:46:48.551Z,5.67
2017-10-02T01:48:54.685Z,5.20
2017-10-02T01:51:00.814Z,5.33
2017-10-02T01:53:13.107Z,5.20
2017-10-02T01:55:25.095Z,5.10
2017-10-02T01:57:38.239Z,5.10
2017-10-02T01:59:46.151Z,5.07
2017-10-02T02:01:57.706Z,5.30
2017-10-02T02:04:06.854Z,5.10
2017-10-02T02:06:12.700Z,5.13
2017-10-02T02:08:18.599Z,4.80
2017-10-02T02:12:48.614Z,5.17
2017-10-02T02:14:54.230Z,5.07
2017-10-02T02:17:00.207Z,4.90
2017-10-02T02:19:09.033Z,5.20
2017-10-02T02:21:15.434Z,5.27
2017-10-02T02:23:27.034Z,5.30
2017-10-02T02:25:38.759Z,5.20
2017-10-02T02:27:44.877Z,4.63
2017-10-02T02:29:55.285Z,5.17
2017-10-02T02:32:01.336Z,5.13
2017-10-02T02:34:08.821Z,4.57
2017-10-02T02:36:14.623Z,5.00
2017-10-02T02:38:30.132Z,5.23
2017-10-02T02:40:36.639Z,4.83
2017-10-02T02:42:42.649Z,5.00
2017-10-02T02:44:53.144Z,4.10
2017-10-02T02:46:58.944Z,5.37
2017-10-02T02:49:05.730Z,4.93
2017-10-02T02:51:12.553Z,4.97
2017-10-02T02:53:17.642Z,5.00
2017-10-02T02:55:23.998Z,5.17
2017-10-02T02:57:30.453Z,4.60
2017-10-02T02:59:40.948Z,5.30
2017-10-02T03:01:47.101Z,4.87
2017-10-02T03:03:54.620Z,4.87
2017-10-02T03:06:03.531Z,4.97
2017-10-02T03:08:09.922Z,5.80
2017-10-02T03:10:16.497Z,4.60
2017-10-02T03:12:23.010Z,4.80
2017-10-02T03:14:30.873Z,4.77
2017-10-02T03:16:42.376Z,4.87
2017-10-02T03:18:48.780Z,4.30
2017-10-02T03:21:02.645Z,4.80
2017-10-02T03:23:11.796Z,4.60
2017-10-02T03:25:20.405Z,3.83
2017-10-02T03:27:27.984Z,4.40
2017-10-02T03:29:34.243Z,4.80
2017-10-02T03:31:40.088Z,4.87
2017-10-02T03:33:45.759Z,4.40
2017-10-02T03:35:53.439Z,4.10
2017-10-02T03:37:59.406Z,3.80
2017-10-02T03:40:05.077Z,4.80
2017-10-02T03:42:11.107Z,4.80
2017-10-02T03:44:18.807Z,4.20
2017-10-02T03:46:27.167Z,4.63
2017-10-02T03:48:33.216Z,4.33
2017-10-02T03:50:40.105Z,4.17
2017-10-02T03:52:48.245Z,4.17
2017-10-02T03:54:53.624Z,4.43
2017-10-02T03:56:58.938Z,4.17
2017-10-02T03:59:05.484Z,3.67
2017-10-02T04:01:12.544Z,4.37
2017-10-02T04:03:19.354Z,3.80
2017-10-02T04:05:27.545Z,4.03
2017-10-02T04:07:34.138Z,3.93
2017-10-02T04:09:39.711Z,4.20
2017-10-02T04:11:46.212Z,4.30
2017-10-02T04:13:52.526Z,3.83
2017-10-02T04:15:57.900Z,3.67
2017-10-02T04:18:08.439Z,4.70
2017-10-02T04:20:17.585Z,3.97
2017-10-02T04:22:23.757Z,4.73
2017-10-02T04:24:34.013Z,4.13
2017-10-02T04:26:44.321Z,3.90
2017-10-02T04:28:50.102Z,4.80
2017-10-02T04:30:55.771Z,4.50
2017-10-02T04:33:01.414Z,4.03
2017-10-02T04:35:11.273Z,4.73
2017-10-02T04:37:17.814Z,3.53
2017-10-02T04:39:24.466Z,3.50
2017-10-02T04:41:36.375Z,4.53
2017-10-02T04:43:42.535Z,3.97
2017-10-02T04:45:49.079Z,3.87
2017-10-02T04:47:55.386Z,3.83
2017-10-02T04:50:05.103Z,3.77
2017-10-02T04:52:10.540Z,3.80
2017-10-02T04:54:17.108Z,3.43
2017-10-02T04:56:28.112Z,3.60
2017-10-02T04:58:39.223Z,4.47
2017-10-02T05:00:50.514Z,3.40
2017-10-02T05:03:01.381Z,4.20
2017-10-02T05:05:07.143Z,3.63
2017-10-02T05:07:14.817Z,3.50
2017-10-02T05:09:23.737Z,3.67
2017-10-02T05:11:30.655Z,3.60
2017-10-02T05:13:36.302Z,3.43
2017-10-02T05:15:43.592Z,3.77
2017-10-02T05:17:50.014Z,3.70
2017-10-02T05:19:58.606Z,3.93
2017-10-02T05:22:04.612Z,3.80
2017-10-02T05:24:10.131Z,3.87
2017-10-02T05:26:16.860Z,3.60
2017-10-02T05:28:22.663Z,3.70
2017-10-02T05:30:28.747Z,4.00
2017-10-02T05:32:35.185Z,3.60
2017-10-02T05:34:46.231Z,3.57
2017-10-02T05:36:52.295Z,3.17
2017-10-02T05:38:59.347Z,4.00
2017-10-02T05:41:07.939Z,3.97
2017-10-02T05:43:13.205Z,5.07
2017-10-02T05:45:19.789Z,5.03
2017-10-02T05:47:25.836Z,6.10
2017-10-02T05:49:32.868Z,105.90
2017-10-02T05:51:41.193Z,168.10
2017-10-02T05:53:50.085Z,255.70
2017-10-02T05:55:56.636Z,246.80
2017-10-02T05:58:02.392Z,280.40
2017-10-02T06:00:08.131Z,169.83
2017-10-02T06:02:14.019Z,144.03
2017-10-02T06:04:22.778Z,288.10
2017-10-02T06:06:33.105Z,364.50
2017-10-02T06:08:38.600Z,484.03
2017-10-02T06:10:44.614Z,369.50
2017-10-02T06:12:51.301Z,329.57
2017-10-02T06:14:57.530Z,281.40
2017-10-02T06:17:03.941Z,208.93
2017-10-02T06:19:10.047Z,269.87
2017-10-02T06:21:17.080Z,195.00
2017-10-02T06:23:23.374Z,156.63
2017-10-02T06:25:31.248Z,153.40
2017-10-02T06:27:38.883Z,136.83
2017-10-02T06:29:44.472Z,133.70
2017-10-02T06:31:53.309Z,91.27
2017-10-02T06:34:01.112Z,105.47
2017-10-02T06:36:06.515Z,83.10
2017-10-02T06:38:11.965Z,98.47
2017-10-02T06:40:26.018Z,96.60
2017-10-02T06:42:35.090Z,82.93
2017-10-02T06:44:44.468Z,82.23
2017-10-02T06:46:54.221Z,62.03
2017-10-02T06:49:03.834Z,71.23
2017-10-02T06:51:12.427Z,54.97
2017-10-02T06:53:23.773Z,54.90
2017-10-02T06:55:31.555Z,59.87
2017-10-02T06:57:38.485Z,41.90
2017-10-02T06:59:45.573Z,41.50
2017-10-02T07:01:52.906Z,37.20
2017-10-02T07:03:59.215Z,38.83
2017-10-02T07:06:11.509Z,35.33
2017-10-02T07:08:26.828Z,33.30
2017-10-02T07:10:37.242Z,34.37
2017-10-02T07:12:44.545Z,29.33
2017-10-02T07:14:50.890Z,24.40
2017-10-02T07:17:00.093Z,30.77
2017-10-02T07:19:05.880Z,22.93
2017-10-02T07:21:13.256Z,23.80
2017-10-02T07:23:20.515Z,21.60
2017-10-02T07:25:34.950Z,19.03
2017-10-02T07:27:40.532Z,17.90
2017-10-02T07:29:46.346Z,19.57
2017-10-02T07:31:52.618Z,17.33
2017-10-02T07:33:58.239Z,15.30
2017-10-02T07:36:11.907Z,14.10
2017-10-02T07:38:23.516Z,11.37
2017-10-02T07:40:29.489Z,12.13
2017-10-02T07:42:36.130Z,10.10
2017-10-02T07:44:45.962Z,9.70
2017-10-02T07:46:51.493Z,10.17
2017-10-02T07:48:58.212Z,8.17
2017-10-02T07:51:04.480Z,9.00
2017-10-02T07:53:10.004Z,6.80
2017-10-02T07:55:18.615Z,6.90
2017-10-02T07:57:33.719Z,7.20
2017-10-02T07:59:42.279Z,7.17
2017-10-02T08:01:52.149Z,6.43
2017-10-02T08:04:03.007Z,5.40
2017-10-02T08:06:10.671Z,4.97
2017-10-02T08:08:17.257Z,4.73
2017-10-02T08:10:28.387Z,4.10
2017-10-02T08:12:36.853Z,3.83
2017-10-02T08:14:43.751Z,4.40
2017-10-02T08:16:50.766Z,3.47
2017-10-02T08:19:02.785Z,3.50
2017-10-02T08:21:10.499Z,3.03
2017-10-02T08:23:19.371Z,3.40
2017-10-02T08:25:27.303Z,3.30
2017-10-02T08:27:36.176Z,2.60
2017-10-02T08:29:45.645Z,2.43
2017-10-02T08:31:54.996Z,2.70
2017-10-02T08:34:03.241Z,2.80
2017-10-02T08:36:09.553Z,2.83
2017-10-02T08:38:15.907Z,2.77
2017-10-02T08:40:29.271Z,2.77
2017-10-02T08:42:36.568Z,2.70
2017-10-02T08:44:42.817Z,3.50
2017-10-02T08:46:54.314Z,2.67
2017-10-02T08:49:07.896Z,2.40
2017-10-02T08:51:19.933Z,2.90
2017-10-02T08:53:37.717Z,2.83
2017-10-02T08:55:46.444Z,2.77
2017-10-02T08:58:40.414Z,2.20
2017-10-02T09:06:20.205Z,2.50
2017-10-02T09:08:40.005Z,2.70
2017-10-02T09:10:46.749Z,3.00
2017-10-02T09:12:54.745Z,2.40
2017-10-02T09:15:09.661Z,2.40
2017-10-02T09:17:16.442Z,2.60
2017-10-02T09:19:26.755Z,2.70
2017-10-02T09:24:16.330Z,2.70
2017-10-02T09:28:51.084Z,2.67
2017-10-02T09:30:59.775Z,2.40
2017-10-02T09:33:12.377Z,2.70
2017-10-02T09:35:21.704Z,2.40
2017-10-02T09:37:32.467Z,2.50
2017-10-02T09:39:41.493Z,2.50
2017-10-02T09:41:55.362Z,2.30
2017-10-02T09:44:02.949Z,3.20
2017-10-02T09:46:09.496Z,2.10
2017-10-02T09:48:24.117Z,2.40
2017-10-02T09:53:40.696Z,2.30
2017-10-02T09:55:46.029Z,1.97
2017-10-02T09:57:52.662Z,1.90
2017-10-02T09:59:58.991Z,2.50
2017-10-02T10:02:04.463Z,1.97
2017-10-02T10:04:10.235Z,2.17
2017-10-02T10:06:16.867Z,2.10
2017-10-02T10:08:22.550Z,2.00
2017-10-02T10:10:28.867Z,2.03
2017-10-02T10:12:35.216Z,2.47
2017-10-02T10:14:40.834Z,2.20
2017-10-02T10:16:47.095Z,2.27
2017-10-02T10:18:53.346Z,2.07
2017-10-02T10:20:59.942Z,2.47
2017-10-02T10:23:06.151Z,2.20
2017-10-02T10:25:12.056Z,2.43
2017-10-02T10:27:18.992Z,2.10
2017-10-02T10:29:25.231Z,2.03
2017-10-02T10:31:32.290Z,2.10
2017-10-02T10:33:38.425Z,2.40
2017-10-02T10:35:44.707Z,1.97
2017-10-02T10:37:50.712Z,1.90
2017-10-02T10:39:58.322Z,2.30
2017-10-02T10:42:05.104Z,1.93
2017-10-02T10:44:10.858Z,2.00
2017-10-02T10:46:17.432Z,2.23
2017-10-02T10:48:24.872Z,1.80
2017-10-02T10:50:31.875Z,2.00
2017-10-02T10:52:38.081Z,2.00
2017-10-02T10:54:46.273Z,2.03
2017-10-02T10:56:52.319Z,1.97
2017-10-02T10:58:57.828Z,2.23
2017-10-02T11:01:03.477Z,2.00
2017-10-02T11:03:09.138Z,1.80
2017-10-02T11:05:15.172Z,2.00
2017-10-02T11:07:21.533Z,2.00
2017-10-02T11:09:28.155Z,1.90
2017-10-02T11:11:34.431Z,1.80
2017-10-02T11:13:40.127Z,1.80
2017-10-02T11:15:47.854Z,1.53
2017-10-02T11:17:54.697Z,2.03
2017-10-02T11:20:00.832Z,1.40
2017-10-02T11:22:07.872Z,1.73
2017-10-02T11:24:15.775Z,1.50
2017-10-02T11:26:23.874Z,1.40
2017-10-02T11:28:33.270Z,1.50
2017-10-02T11:30:40.916Z,1.43
2017-10-02T11:32:47.446Z,1.47
2017-10-02T11:34:54.930Z,1.60
2017-10-02T11:37:02.709Z,1.57
2017-10-02T11:39:13.958Z,1.30
2017-10-02T11:41:25.313Z,1.53
2017-10-02T11:43:40.349Z,1.30
2017-10-02T11:45:47.887Z,1.43
2017-10-02T11:47:55.890Z,1.33
2017-10-02T11:50:01.457Z,1.40
2017-10-02T11:52:07.939Z,1.43
2017-10-02T11:54:17.939Z,1.40
2017-10-02T11:56:24.386Z,1.10
2017-10-02T11:58:33.587Z,1.50
2017-10-02T12:00:40.983Z,1.43
2017-10-02T12:02:46.467Z,1.67
2017-10-02T12:04:52.077Z,1.40
2017-10-02T12:06:57.806Z,1.40
2017-10-02T12:09:04.482Z,1.67
2017-10-02T12:11:10.436Z,1.27
2017-10-02T12:13:17.122Z,1.70
2017-10-02T12:15:23.173Z,1.23
2017-10-02T12:17:29.572Z,1.40
2017-10-02T12:19:37.159Z,1.43
2017-10-02T12:21:46.237Z,1.40
2017-10-02T12:23:53.787Z,1.47
2017-10-02T12:26:06.111Z,1.20
2017-10-02T12:28:14.255Z,1.30
2017-10-02T12:30:28.172Z,1.30
2017-10-02T12:32:37.894Z,1.30
2017-10-02T12:35:23.856Z,1.30
2017-10-02T12:37:39.850Z,1.10
2017-10-02T12:40:02.878Z,1.13
2017-10-02T12:42:08.994Z,1.27
2017-10-02T12:44:30.849Z,0.97
2017-10-02T12:46:44.775Z,1.10
2017-10-02T12:48:51.550Z,1.00
2017-10-02T12:50:58.196Z,1.00
2017-10-02T12:53:08.217Z,1.00
2017-10-02T12:55:25.727Z,0.80
2017-10-02T12:57:34.221Z,1.00
2017-10-02T12:59:41.353Z,0.90
2017-10-02T13:01:46.850Z,1.17
2017-10-02T13:03:54.063Z,1.10
2017-10-02T13:05:59.458Z,1.07
2017-10-02T13:08:04.944Z,1.20
2017-10-02T13:10:12.419Z,0.80
2017-10-02T13:12:18.514Z,0.93
2017-10-02T13:14:27.125Z,0.93
2017-10-02T13:16:35.625Z,1.20
2017-10-02T13:18:41.850Z,0.97
2017-10-02T13:20:47.505Z,1.00
2017-10-02T13:22:53.151Z,1.10
2017-10-02T13:25:00.389Z,0.87
2017-10-02T13:27:06.760Z,0.93
2017-10-02T13:29:12.221Z,1.00
2017-10-02T13:31:18.721Z,0.90
2017-10-02T13:33:25.379Z,0.93
2017-10-02T13:35:34.276Z,0.80
2017-10-02T13:37:41.108Z,0.80
2017-10-02T13:39:46.809Z,0.90
2017-10-02T13:41:52.895Z,0.90
2017-10-02T13:44:05.810Z,1.00
2017-10-02T13:46:11.500Z,2.00
2017-10-02T13:48:18.142Z,1.00
2017-10-02T13:50:25.549Z,1.00
2017-10-02T13:52:32.041Z,1.30
2017-10-02T13:54:38.062Z,0.97
2017-10-02T13:56:43.752Z,0.87
2017-10-02T13:58:50.946Z,1.10
2017-10-02T14:00:56.978Z,0.87
2017-10-02T14:03:03.094Z,1.00
2017-10-02T14:05:10.243Z,0.83
2017-10-02T14:07:21.630Z,0.87
2017-10-02T14:09:29.931Z,1.00
2017-10-02T14:13:55.748Z,0.80
2017-10-02T14:16:04.428Z,0.80
2017-10-02T14:18:11.190Z,0.90
2017-10-02T14:20:23.176Z,1.10
2017-10-02T14:22:28.772Z,1.07
2017-10-02T14:24:36.618Z,1.07
2017-10-02T14:26:46.371Z,0.90
2017-10-02T14:28:53.096Z,0.97
2017-10-02T14:30:58.989Z,1.20
2017-10-02T14:33:07.883Z,1.00
2017-10-02T14:35:14.438Z,1.00
2017-10-02T14:37:31.047Z,1.13
2017-10-02T14:39:38.944Z,1.30
2017-10-02T14:41:44.974Z,1.23
2017-10-02T14:43:51.817Z,1.50
2017-10-02T14:45:57.690Z,1.20
2017-10-02T14:48:03.015Z,1.20
2017-10-02T14:50:08.832Z,1.90
2017-10-02T14:52:15.147Z,147.73
2017-10-02T14:54:23.794Z,140.33
2017-10-02T14:56:30.978Z,260.63
2017-10-02T14:58:39.922Z,176.80
2017-10-02T15:00:45.424Z,187.93
2017-10-02T15:02:51.823Z,142.87
2017-10-02T15:04:57.730Z,118.80
2017-10-02T15:07:04.257Z,133.73
2017-10-02T15:09:10.774Z,118.40
2017-10-02T15:11:19.447Z,86.27
2017-10-02T15:13:27.807Z,84.30
2017-10-02T15:15:35.035Z,67.97
2017-10-02T15:17:41.294Z,59.90
2017-10-02T15:19:48.085Z,53.70
2017-10-02T15:21:54.789Z,58.10
2017-10-02T15:24:01.214Z,51.20
2017-10-02T15:26:09.835Z,37.20
2017-10-02T15:28:16.918Z,34.03
2017-10-02T15:30:25.921Z,31.87
2017-10-02T15:32:35.739Z,27.87
2017-10-02T15:34:49.297Z,22.87
2017-10-02T15:36:58.107Z,21.73
2017-10-02T15:39:08.134Z,19.20
2017-10-02T15:41:17.489Z,15.20
2017-10-02T15:43:28.783Z,12.27
2017-10-02T15:45:38.416Z,12.00
2017-10-02T15:47:49.351Z,10.17
2017-10-02T15:49:57.018Z,9.57
2017-10-02T15:52:07.990Z,8.77
2017-10-02T15:54:18.887Z,7.60
2017-10-02T15:56:34.920Z,6.57
2017-10-02T15:58:54.062Z,6.47
2017-10-02T16:01:03.535Z,6.90
2017-10-02T16:03:10.290Z,6.43
2017-10-02T16:05:18.021Z,5.83
2017-10-02T16:07:28.677Z,5.33
2017-10-02T16:09:38.680Z,4.87
2017-10-02T16:11:45.214Z,4.60
2017-10-02T16:13:51.769Z,5.07
2017-10-02T16:16:01.061Z,4.37
2017-10-02T16:18:10.876Z,4.30
2017-10-02T16:20:18.632Z,4.13
2017-10-02T16:22:34.450Z,3.20
2017-10-02T16:27:04.458Z,3.23
2017-10-02T16:29:18.402Z,3.40
2017-10-02T17:54:10.205Z,228.63
2017-10-02T17:56:22.869Z,265.03
2017-10-02T17:58:32.789Z,254.93
2017-10-02T18:01:18.371Z,261.03
2017-10-02T18:03:26.267Z,549.03
2017-10-02T18:05:38.514Z,603.90
2017-10-02T18:07:46.233Z,358.80
2017-10-02T18:10:01.582Z,405.00
2017-10-02T18:12:33.250Z,304.30
2017-10-02T18:15:00.599Z,280.70
2017-10-02T18:20:01.609Z,215.23
2017-10-02T18:22:09.450Z,190.17
2017-10-02T18:24:15.410Z,174.17
2017-10-02T18:26:32.851Z,192.10
2017-10-02T18:28:40.721Z,130.47
2017-10-02T18:30:51.396Z,136.57
2017-10-02T18:32:59.764Z,137.00
2017-10-02T18:35:41.258Z,99.33
2017-10-02T18:37:57.309Z,88.10
2017-10-02T18:40:10.490Z,80.90
2017-10-02T18:42:21.606Z,72.70
2017-10-02T18:44:28.832Z,70.20
2017-10-02T18:46:39.858Z,282.97
2017-10-02T18:48:48.781Z,406.73
2017-10-02T18:50:56.788Z,286.37
2017-10-02T18:53:02.952Z,229.90
2017-10-02T18:55:13.001Z,220.63
2017-10-02T18:57:21.348Z,174.07
2017-10-02T18:59:29.363Z,171.60
2017-10-02T19:01:41.158Z,145.60
2017-10-02T19:03:49.169Z,151.30
2017-10-02T19:05:56.120Z,112.93
2017-10-02T19:08:05.355Z,98.40
2017-10-02T19:10:14.051Z,84.30
2017-10-02T19:12:26.725Z,71.17
2017-10-02T19:14:38.527Z,67.63
2017-10-02T19:16:48.999Z,219.57
2017-10-02T19:18:55.078Z,218.80
2017-10-02T19:21:05.792Z,291.77
2017-10-02T19:23:17.825Z,399.07
2017-10-02T19:25:28.941Z,315.83
2017-10-02T19:29:03.641Z,289.23
2017-10-02T19:31:12.564Z,283.47
2017-10-02T19:33:22.228Z,221.03
2017-10-02T19:35:30.136Z,312.20
2017-10-02T19:37:42.728Z,120.60
2017-10-02T19:39:50.548Z,100.40
2017-10-02T19:41:57.598Z,152.40
2017-10-02T19:44:05.974Z,82.87
2017-10-02T19:46:13.347Z,61.57
2017-10-02T19:48:20.252Z,62.97
2017-10-02T19:50:29.221Z,348.13
2017-10-02T19:52:39.004Z,336.87
2017-10-02T19:54:54.365Z,462.07
2017-10-02T19:57:00.255Z,343.40
2017-10-02T19:59:10.497Z,281.37
2017-10-02T20:01:19.779Z,299.50
2017-10-02T20:03:31.103Z,322.87
2017-10-02T20:05:42.011Z,296.60
2017-10-02T20:07:48.819Z,225.37
2017-10-02T20:09:59.589Z,190.53
2017-10-02T20:12:09.803Z,187.10
2017-10-02T20:14:17.643Z,274.53
2017-10-02T20:16:24.307Z,258.23
2017-10-02T20:20:47.892Z,221.13
2017-10-02T20:22:57.341Z,156.30
2017-10-02T20:25:04.211Z,126.87
2017-10-02T20:27:15.706Z,141.83
2017-10-02T20:29:22.796Z,81.63
2017-10-02T20:31:50.710Z,159.83
2017-10-02T20:34:02.586Z,84.50
2017-10-02T20:36:12.049Z,47.87
2017-10-02T20:38:20.682Z,46.03
2017-10-02T20:40:28.912Z,35.10
2017-10-02T20:42:40.195Z,28.53
2017-10-02T20:44:48.660Z,31.03
2017-10-02T20:46:59.609Z,28.23
2017-10-02T20:49:07.119Z,25.13
2017-10-02T20:51:13.927Z,23.00
2017-10-02T20:53:20.926Z,24.00
2017-10-02T20:55:28.746Z,22.30
2017-10-02T20:57:40.052Z,18.60
2017-10-02T20:59:51.396Z,19.90
2017-10-02T21:02:00.027Z,16.60
2017-10-02T21:04:09.945Z,15.50
2017-10-02T21:06:24.402Z,16.07
2017-10-02T21:08:36.553Z,13.70
2017-10-02T21:10:54.770Z,40.50
2017-10-02T21:13:04.711Z,67.83
2017-10-02T21:15:12.144Z,204.47
2017-10-02T21:17:19.593Z,172.50
2017-10-02T21:19:26.996Z,135.27
2017-10-02T21:21:34.862Z,88.40
2017-10-02T21:23:46.963Z,85.90
2017-10-02T21:25:53.705Z,67.27
2017-10-02T21:27:59.347Z,51.43
2017-10-02T21:30:08.474Z,40.50
2017-10-02T21:32:14.987Z,36.30
2017-10-02T21:36:46.346Z,26.73
2017-10-02T21:38:54.013Z,24.00
2017-10-02T21:41:01.347Z,17.37
2017-10-02T21:43:07.785Z,15.93
2017-10-02T21:45:14.280Z,14.87
2017-10-02T21:47:21.479Z,12.70
2017-10-02T21:49:29.330Z,12.33
2017-10-02T21:51:36.153Z,14.33
2017-10-02T21:53:44.881Z,11.63
2017-10-02T21:55:53.615Z,11.93
2017-10-02T21:58:00.185Z,10.63
2017-10-02T22:00:08.894Z,9.87
2017-10-02T22:02:16.232Z,7.30
2017-10-02T22:04:23.936Z,7.93
2017-10-02T22:06:40.796Z,8.60
2017-10-02T22:08:52.101Z,6.70
2017-10-02T22:11:00.368Z,8.20
2017-10-02T22:13:08.013Z,43.37
2017-10-02T22:15:21.541Z,35.20
2017-10-02T22:17:30.758Z,39.33
2017-10-02T22:19:43.700Z,41.93
2017-10-02T22:21:51.197Z,12.80
2017-10-02T22:26:28.175Z,6.27
2017-10-02T22:30:51.222Z,55.03
2017-10-02T22:32:57.838Z,41.63
2017-10-02T22:35:03.820Z,20.73
2017-10-02T22:37:09.481Z,8.47
2017-10-02T22:39:16.907Z,5.90
2017-10-02T22:41:24.075Z,5.67
2017-10-02T22:43:31.435Z,5.30
2017-10-02T22:45:44.063Z,5.27
2017-10-02T22:47:52.462Z,4.73
2017-10-02T22:49:58.782Z,5.57
2017-10-02T22:52:05.557Z,69.03
2017-10-02T22:54:15.493Z,177.93
2017-10-02T22:56:22.575Z,160.77
2017-10-02T22:58:28.917Z,110.63
2017-10-02T23:00:38.729Z,114.50
2017-10-02T23:02:49.610Z,101.83
2017-10-02T23:04:57.160Z,81.73
2017-10-02T23:07:04.001Z,56.07
2017-10-02T23:09:13.817Z,60.30
2017-10-02T23:11:21.724Z,45.23
2017-10-02T23:13:30.007Z,42.80
2017-10-02T23:15:38.510Z,48.17
2017-10-02T23:17:49.955Z,331.43
2017-10-02T23:20:00.647Z,238.07
2017-10-02T23:22:22.542Z,168.70
2017-10-02T23:24:39.111Z,150.13
2017-10-02T23:26:53.618Z,113.37
2017-10-02T23:31:34.958Z,58.90
2017-10-02T23:33:47.208Z,65.67
2017-10-02T23:36:21.874Z,48.80
2017-10-02T23:38:54.525Z,43.07
2017-10-02T23:43:55.491Z,32.00
2017-10-02T23:46:16.619Z,30.07
2017-10-02T23:48:24.462Z,32.40
2017-10-02T23:50:30.226Z,29.80
2017-10-02T23:52:36.477Z,25.13
2017-10-02T23:54:46.501Z,18.03
2017-10-02T23:56:52.490Z,15.13
2017-10-02T23:58:59.027Z,48.77
